createdAt,value
2018-11-21T00:00:46.046Z,101113.62
2018-11-21T00:01:46.602Z,101113.27
2018-11-21T00:02:47.373Z,101113.11
2018-11-21T00:03:47.017Z,101112.93
2018-11-21T00:04:48.716Z,101112.67
2018-11-21T00:05:49.103Z,101112.41
2018-11-21T00:06:49.822Z,101112.42
2018-11-21T00:07:50.240Z,101112.18
2018-11-21T00:08:50.784Z,101112.50
2018-11-21T00:09:51.334Z,101112.25
2018-11-21T00:10:50.695Z,101112.73
2018-11-21T00:11:53.999Z,101113.50
2018-11-21T00:12:51.472Z,101113.16
2018-11-21T00:13:53.011Z,101113.97
2018-11-21T00:14:53.568Z,101114.81
2018-11-21T00:15:54.347Z,101115.30
2018-11-21T00:16:54.811Z,101116.14
2018-11-21T00:17:55.176Z,101117.12
2018-11-21T00:19:00.683Z,101118.14
2018-11-21T00:19:57.642Z,101118.56
2018-11-21T00:20:55.732Z,101118.87
2018-11-21T00:21:56.538Z,101119.78
2018-11-21T00:22:58.491Z,101120.78
2018-11-21T00:23:58.384Z,101121.68
2018-11-21T00:24:58.773Z,101122.34
2018-11-21T00:26:00.435Z,101123.34
2018-11-21T00:26:59.916Z,101124.33
2018-11-21T00:28:01.301Z,101125.33
2018-11-21T00:29:02.001Z,101125.73
2018-11-21T00:30:02.363Z,101126.47
2018-11-21T00:31:02.788Z,101127.64
2018-11-21T00:32:03.443Z,101128.80
2018-11-21T00:33:04.211Z,101129.54
2018-11-21T00:34:04.626Z,101130.36
2018-11-21T00:35:05.107Z,101131.12
2018-11-21T00:36:04.616Z,101131.28
2018-11-21T00:37:06.308Z,101131.92
2018-11-21T00:38:05.772Z,101131.77
2018-11-21T00:39:06.239Z,101131.24
2018-11-21T00:40:07.701Z,101131.40
2018-11-21T00:41:08.657Z,101131.39
2018-11-21T00:42:09.279Z,101130.72
2018-11-21T00:43:08.813Z,101131.04
2018-11-21T00:44:09.272Z,101131.50
2018-11-21T00:45:11.113Z,101131.09
2018-11-21T00:46:10.567Z,101130.81
2018-11-21T00:47:11.898Z,101130.22
2018-11-21T00:47:20.173Z,101123.59
2018-11-21T00:48:20.904Z,101123.00
2018-11-21T00:49:22.622Z,101122.50
2018-11-21T00:50:23.257Z,101121.92
2018-11-21T00:51:22.962Z,101120.84
2018-11-21T00:52:24.505Z,101119.91
2018-11-21T00:53:24.966Z,101119.58
2018-11-21T00:54:25.603Z,101119.14
2018-11-21T00:55:25.945Z,101118.73
2018-11-21T00:56:26.454Z,101118.48
2018-11-21T00:57:27.008Z,101118.08
2018-11-21T00:58:27.521Z,101118.39
2018-11-21T00:59:27.946Z,101118.48
2018-11-21T01:00:28.353Z,101119.13
2018-11-21T01:01:28.968Z,101119.38
2018-11-21T01:02:29.899Z,101119.97
2018-11-21T01:03:30.734Z,101120.39
2018-11-21T01:04:31.127Z,101121.87
2018-11-21T01:05:30.594Z,101122.97
2018-11-21T01:06:32.068Z,101123.52
2018-11-21T01:07:32.560Z,101125.37
2018-11-21T01:08:33.199Z,101126.69
2018-11-21T01:09:33.685Z,101128.70
2018-11-21T01:10:34.409Z,101130.27
2018-11-21T01:11:34.862Z,101132.09
2018-11-21T01:12:35.423Z,101134.02
2018-11-21T01:13:35.940Z,101135.67
2018-11-21T01:14:36.358Z,101137.47
2018-11-21T01:15:36.970Z,101138.91
2018-11-21T01:16:37.394Z,101140.91
2018-11-21T01:17:38.029Z,101142.22
2018-11-21T01:18:38.483Z,101144.45
2018-11-21T01:19:39.392Z,101146.22
2018-11-21T01:20:39.825Z,101149.03
2018-11-21T01:21:40.731Z,101152.72
2018-11-21T01:22:40.263Z,101155.81
2018-11-21T01:23:41.849Z,101159.20
2018-11-21T01:24:42.309Z,101163.13
2018-11-21T01:25:42.935Z,101166.89
2018-11-21T01:26:42.580Z,101170.15
2018-11-21T01:27:44.086Z,101172.70
2018-11-21T01:28:43.551Z,101175.13
2018-11-21T01:29:45.016Z,101177.89
2018-11-21T01:30:45.670Z,101179.98
2018-11-21T01:31:46.263Z,101182.55
2018-11-21T01:32:45.506Z,101184.89
2018-11-21T01:33:46.831Z,101186.89
2018-11-21T01:34:47.510Z,101189.37
2018-11-21T01:35:47.937Z,101191.05
2018-11-21T01:35:58.030Z,101225.98
2018-11-21T01:36:59.441Z,101225.82
2018-11-21T01:37:59.987Z,101225.56
2018-11-21T01:39:00.446Z,101225.14
2018-11-21T01:40:01.075Z,101225.58
2018-11-21T01:41:01.519Z,101224.23
2018-11-21T01:42:00.936Z,101224.42
2018-11-21T01:43:01.970Z,101224.41
2018-11-21T01:44:02.394Z,101224.59
2018-11-21T01:45:02.832Z,101224.91
2018-11-21T01:46:03.315Z,101225.09
2018-11-21T01:47:03.676Z,101225.36
2018-11-21T01:48:04.012Z,101225.69
2018-11-21T01:49:04.761Z,101225.28
2018-11-21T01:50:04.409Z,101224.70
2018-11-21T01:51:05.802Z,101223.97
2018-11-21T01:52:06.464Z,101223.03
2018-11-21T01:53:07.334Z,101221.80
2018-11-21T01:54:07.689Z,101220.81
2018-11-21T01:55:08.383Z,101219.54
2018-11-21T01:56:08.890Z,101217.97
2018-11-21T01:57:09.170Z,101216.89
2018-11-21T01:58:09.849Z,101216.08
2018-11-21T01:59:10.218Z,101215.57
2018-11-21T02:00:10.719Z,101215.50
2018-11-21T02:01:11.121Z,101216.02
2018-11-21T02:02:11.787Z,101216.00
2018-11-21T02:03:12.665Z,101216.09
2018-11-21T02:04:13.282Z,101216.75
2018-11-21T02:05:12.607Z,101216.84
2018-11-21T02:06:14.287Z,101217.70
2018-11-21T02:07:15.121Z,101218.69
2018-11-21T02:08:14.586Z,101219.12
2018-11-21T02:09:15.003Z,101220.05
2018-11-21T02:10:16.921Z,101221.55
2018-11-21T02:11:17.447Z,101222.72
2018-11-21T02:12:17.941Z,101223.73
2018-11-21T02:13:18.436Z,101223.98
2018-11-21T02:14:19.012Z,101225.17
2018-11-21T02:15:19.844Z,101226.20
2018-11-21T02:16:18.913Z,101227.02
2018-11-21T02:17:20.425Z,101228.12
2018-11-21T02:18:20.712Z,101229.05
2018-11-21T02:19:21.241Z,101229.89
2018-11-21T02:20:21.702Z,101230.34
2018-11-21T02:21:22.109Z,101230.69
2018-11-21T02:22:22.672Z,101231.29
2018-11-21T02:23:23.008Z,101231.13
2018-11-21T02:24:23.540Z,101231.06
2018-11-21T02:25:24.523Z,101230.91
2018-11-21T02:25:35.628Z,101222.01
2018-11-21T02:26:37.110Z,101221.25
2018-11-21T02:27:37.824Z,101221.16
2018-11-21T02:28:38.257Z,101221.25
2018-11-21T02:29:38.766Z,101220.83
2018-11-21T02:30:39.592Z,101221.50
2018-11-21T02:31:40.236Z,101221.34
2018-11-21T02:32:40.537Z,101221.88
2018-11-21T02:33:41.068Z,101221.69
2018-11-21T02:34:41.383Z,101221.71
2018-11-21T02:35:41.748Z,101221.81
2018-11-21T02:36:41.297Z,101222.39
2018-11-21T02:37:42.844Z,101222.80
2018-11-21T02:38:43.722Z,101223.33
2018-11-21T02:39:42.991Z,101224.02
2018-11-21T02:40:44.429Z,101224.84
2018-11-21T02:41:44.852Z,101226.02
2018-11-21T02:42:45.346Z,101226.62
2018-11-21T02:43:45.736Z,101227.56
2018-11-21T02:44:45.886Z,101228.97
2018-11-21T02:45:46.219Z,101230.98
2018-11-21T02:46:46.906Z,101233.16
2018-11-21T02:47:47.268Z,101235.14
2018-11-21T02:48:47.864Z,101237.75
2018-11-21T02:49:48.230Z,101240.25
2018-11-21T02:50:48.591Z,101242.58
2018-11-21T02:51:48.962Z,101245.34
2018-11-21T02:52:49.422Z,101247.73
2018-11-21T02:53:49.850Z,101250.67
2018-11-21T02:54:50.231Z,101253.23
2018-11-21T02:55:50.534Z,101255.22
2018-11-21T02:56:50.934Z,101257.57
2018-11-21T02:57:51.377Z,101259.31
2018-11-21T02:58:51.713Z,101261.22
2018-11-21T02:59:52.470Z,101263.16
2018-11-21T03:00:52.827Z,101264.73
2018-11-21T03:01:53.317Z,101266.30
2018-11-21T03:02:53.653Z,101267.80
2018-11-21T03:03:54.108Z,101269.47
2018-11-21T03:04:54.424Z,101270.97
2018-11-21T03:05:54.867Z,101272.39
2018-11-21T03:06:55.186Z,101273.38
2018-11-21T03:07:55.563Z,101274.39
2018-11-21T03:08:55.969Z,101275.38
2018-11-21T03:09:56.332Z,101276.81
2018-11-21T03:10:56.699Z,101278.55
2018-11-21T03:11:57.157Z,101279.87
2018-11-21T03:12:05.441Z,101304.75
2018-11-21T03:13:06.868Z,101304.33
2018-11-21T03:14:07.280Z,101304.33
2018-11-21T03:15:07.576Z,101305.08
2018-11-21T03:16:07.975Z,101305.34
2018-11-21T03:17:08.458Z,101306.48
2018-11-21T03:18:08.807Z,101306.80
2018-11-21T03:19:09.209Z,101307.75
2018-11-21T03:20:09.742Z,101307.82
2018-11-21T03:21:10.272Z,101308.30
2018-11-21T03:22:10.854Z,101308.66
2018-11-21T03:23:11.411Z,101308.97
2018-11-21T03:24:12.075Z,101309.48
2018-11-21T03:25:12.464Z,101310.13
2018-11-21T03:26:12.956Z,101310.48
2018-11-21T03:27:13.377Z,101310.38
2018-11-21T03:28:13.839Z,101310.23
2018-11-21T03:29:14.551Z,101310.31
2018-11-21T03:30:14.893Z,101310.05
2018-11-21T03:31:15.440Z,101309.63
2018-11-21T03:32:15.850Z,101309.72
2018-11-21T03:33:16.165Z,101309.39
2018-11-21T03:34:16.556Z,101309.12
2018-11-21T03:35:17.388Z,101308.95
2018-11-21T03:36:17.865Z,101308.73
2018-11-21T03:37:18.141Z,101308.63
2018-11-21T03:38:18.474Z,101308.71
2018-11-21T03:39:18.886Z,101309.39
2018-11-21T03:40:19.340Z,101310.06
2018-11-21T03:41:19.888Z,101310.98
2018-11-21T03:42:20.190Z,101311.80
2018-11-21T03:43:20.559Z,101312.56
2018-11-21T03:44:20.906Z,101313.91
2018-11-21T03:45:21.401Z,101314.63
2018-11-21T03:46:21.727Z,101315.55
2018-11-21T03:47:22.143Z,101316.81
2018-11-21T03:48:22.867Z,101318.31
2018-11-21T03:49:23.429Z,101319.81
2018-11-21T03:50:23.825Z,101321.00
2018-11-21T03:51:24.229Z,101322.64
2018-11-21T03:52:24.939Z,101323.64
2018-11-21T03:53:25.252Z,101325.01
2018-11-21T03:54:25.605Z,101325.58
2018-11-21T03:55:26.002Z,101326.84
2018-11-21T03:56:26.477Z,101327.76
2018-11-21T03:56:34.943Z,101339.45
2018-11-21T03:57:36.289Z,101339.19
2018-11-21T03:58:36.536Z,101339.52
2018-11-21T03:59:37.020Z,101338.94
2018-11-21T04:00:37.328Z,101338.77
2018-11-21T04:01:37.765Z,101338.51
2018-11-21T04:02:38.328Z,101338.28
2018-11-21T04:03:38.807Z,101337.86
2018-11-21T04:04:39.272Z,101337.60
2018-11-21T04:05:39.641Z,101337.45
2018-11-21T04:06:39.995Z,101337.04
2018-11-21T04:07:40.534Z,101336.27
2018-11-21T04:08:42.714Z,101335.86
2018-11-21T04:09:40.345Z,101335.88
2018-11-21T04:10:41.711Z,101335.69
2018-11-21T04:11:42.288Z,101335.53
2018-11-21T04:12:42.619Z,101334.69
2018-11-21T04:13:43.033Z,101333.53
2018-11-21T04:14:43.436Z,101332.78
2018-11-21T04:15:43.857Z,101331.86
2018-11-21T04:16:44.238Z,101331.13
2018-11-21T04:17:44.566Z,101330.36
2018-11-21T04:18:44.886Z,101329.28
2018-11-21T04:19:45.197Z,101328.71
2018-11-21T04:20:45.617Z,101327.71
2018-11-21T04:21:45.956Z,101326.45
2018-11-21T04:22:46.321Z,101326.29
2018-11-21T04:23:46.410Z,101325.63
2018-11-21T04:24:46.732Z,101325.70
2018-11-21T04:25:47.147Z,101325.20
2018-11-21T04:26:47.982Z,101325.20
2018-11-21T04:27:48.404Z,101325.45
2018-11-21T04:28:48.849Z,101325.63
2018-11-21T04:29:49.296Z,101325.63
2018-11-21T04:30:49.918Z,101326.55
2018-11-21T04:31:50.226Z,101326.97
2018-11-21T04:32:50.651Z,101327.12
2018-11-21T04:33:51.136Z,101327.38
2018-11-21T04:34:51.468Z,101327.37
2018-11-21T04:35:52.008Z,101327.72
2018-11-21T04:36:52.460Z,101328.20
2018-11-21T04:37:52.752Z,101328.30
2018-11-21T04:38:53.383Z,101329.11
2018-11-21T04:39:53.776Z,101329.95
2018-11-21T04:40:54.059Z,101330.27
2018-11-21T04:41:04.062Z,101339.78
2018-11-21T04:42:05.505Z,101339.02
2018-11-21T04:43:06.349Z,101339.69
2018-11-21T04:44:06.768Z,101339.92
2018-11-21T04:45:07.197Z,101340.11
2018-11-21T04:46:07.760Z,101340.59
2018-11-21T04:47:08.561Z,101341.18
2018-11-21T04:48:08.871Z,101341.60
2018-11-21T04:49:09.417Z,101342.03
2018-11-21T04:50:09.674Z,101342.69
2018-11-21T04:51:10.009Z,101343.27
2018-11-21T04:52:10.275Z,101344.09
2018-11-21T04:53:10.293Z,101345.16
2018-11-21T04:54:10.597Z,101345.94
2018-11-21T04:55:11.082Z,101346.34
2018-11-21T04:56:11.472Z,101347.69
2018-11-21T04:57:11.817Z,101348.08
2018-11-21T04:58:12.301Z,101349.09
2018-11-21T04:59:12.687Z,101350.09
2018-11-21T05:00:13.120Z,101350.66
2018-11-21T05:01:13.632Z,101351.60
2018-11-21T05:02:14.091Z,101351.92
2018-11-21T05:03:14.622Z,101351.84
2018-11-21T05:04:15.287Z,101352.48
2018-11-21T05:05:15.730Z,101352.82
2018-11-21T05:06:16.240Z,101352.92
2018-11-21T05:07:16.657Z,101351.73
2018-11-21T05:08:17.092Z,101351.83
2018-11-21T05:09:17.461Z,101352.33
2018-11-21T05:10:17.782Z,101352.58
2018-11-21T05:11:18.116Z,101353.16
2018-11-21T05:12:18.571Z,101353.84
2018-11-21T05:13:19.157Z,101354.15
2018-11-21T05:14:19.511Z,101355.00
2018-11-21T05:15:19.829Z,101356.34
2018-11-21T05:16:20.480Z,101357.73
2018-11-21T05:17:20.343Z,101358.08
2018-11-21T05:18:21.899Z,101358.82
2018-11-21T05:19:22.238Z,101359.72
2018-11-21T05:20:22.646Z,101361.49
2018-11-21T05:21:23.097Z,101362.72
2018-11-21T05:22:23.490Z,101364.05
2018-11-21T05:23:23.861Z,101364.95
2018-11-21T05:24:24.268Z,101365.70
2018-11-21T05:25:24.676Z,101367.05
2018-11-21T05:25:33.622Z,101399.53
2018-11-21T05:26:34.062Z,101398.94
2018-11-21T05:27:34.327Z,101398.38
2018-11-21T05:28:34.644Z,101397.27
2018-11-21T05:29:34.984Z,101396.03
2018-11-21T05:30:35.263Z,101395.72
2018-11-21T05:31:35.609Z,101394.45
2018-11-21T05:32:36.053Z,101393.97
2018-11-21T05:33:36.341Z,101393.22
2018-11-21T05:34:36.601Z,101392.64
2018-11-21T05:35:37.081Z,101392.23
2018-11-21T05:36:36.378Z,101391.97
2018-11-21T05:37:38.229Z,101391.30
2018-11-21T05:38:38.564Z,101390.47
2018-11-21T05:39:38.882Z,101389.97
2018-11-21T05:40:39.501Z,101388.97
2018-11-21T05:41:39.929Z,101388.41
2018-11-21T05:42:40.697Z,101387.66
2018-11-21T05:43:40.998Z,101386.23
2018-11-21T05:44:41.256Z,101385.66
2018-11-21T05:45:41.626Z,101385.09
2018-11-21T05:46:42.044Z,101384.09
2018-11-21T05:47:42.581Z,101383.84
2018-11-21T05:48:43.174Z,101383.25
2018-11-21T05:49:44.023Z,101382.41
2018-11-21T05:50:44.825Z,101382.52
2018-11-21T05:51:45.221Z,101382.69
2018-11-21T05:52:45.679Z,101382.66
2018-11-21T05:53:46.037Z,101383.27
2018-11-21T05:54:46.397Z,101383.19
2018-11-21T05:55:46.804Z,101383.59
2018-11-21T05:56:47.422Z,101383.95
2018-11-21T05:57:48.264Z,101384.67
2018-11-21T05:58:48.993Z,101385.59
2018-11-21T05:59:49.358Z,101386.76
2018-11-21T06:00:49.920Z,101388.59
2018-11-21T06:01:50.404Z,101390.34
2018-11-21T06:02:50.810Z,101392.34
2018-11-21T06:03:51.172Z,101394.00
2018-11-21T06:04:51.625Z,101395.66
2018-11-21T06:05:52.159Z,101397.16
2018-11-21T06:06:52.503Z,101398.23
2018-11-21T06:07:52.933Z,101399.73
2018-11-21T06:08:53.756Z,101401.66
2018-11-21T06:09:54.064Z,101403.20
2018-11-21T06:10:02.443Z,101427.02
2018-11-21T06:11:03.772Z,101426.86
2018-11-21T06:12:04.553Z,101426.69
2018-11-21T06:13:03.906Z,101426.36
2018-11-21T06:14:05.675Z,101426.36
2018-11-21T06:15:06.057Z,101426.58
2018-11-21T06:16:06.657Z,101426.42
2018-11-21T06:17:09.799Z,101426.92
2018-11-21T06:18:07.214Z,101427.36
2018-11-21T06:19:07.626Z,101427.59
2018-11-21T06:20:07.947Z,101428.69
2018-11-21T06:21:08.341Z,101429.02
2018-11-21T06:22:08.677Z,101430.66
2018-11-21T06:23:09.464Z,101431.76
2018-11-21T06:24:10.875Z,101433.09
2018-11-21T06:25:10.239Z,101434.09
2018-11-21T06:26:10.720Z,101435.34
2018-11-21T06:27:11.242Z,101436.83
2018-11-21T06:28:11.013Z,101437.81
2018-11-21T06:29:12.436Z,101439.16
2018-11-21T06:30:12.759Z,101439.75
2018-11-21T06:31:13.190Z,101439.64
2018-11-21T06:32:13.752Z,101440.33
2018-11-21T06:33:13.119Z,101440.98
2018-11-21T06:34:14.644Z,101441.48
2018-11-21T06:35:15.215Z,101441.25
2018-11-21T06:36:15.896Z,101442.08
2018-11-21T06:37:16.328Z,101442.25
2018-11-21T06:38:17.288Z,101442.58
2018-11-21T06:39:18.217Z,101443.58
2018-11-21T06:40:17.268Z,101443.58
2018-11-21T06:41:18.770Z,101443.47
2018-11-21T06:42:19.275Z,101444.16
2018-11-21T06:43:20.068Z,101444.25
2018-11-21T06:44:20.508Z,101444.91
2018-11-21T06:45:20.856Z,101445.55
2018-11-21T06:46:21.240Z,101446.83
2018-11-21T06:47:21.648Z,101448.23
2018-11-21T06:48:22.124Z,101448.98
2018-11-21T06:49:22.535Z,101450.98
2018-11-21T06:50:23.115Z,101452.06
2018-11-21T06:51:23.535Z,101453.66
2018-11-21T06:52:23.959Z,101455.41
2018-11-21T06:53:24.565Z,101457.55
2018-11-21T06:54:25.202Z,101458.98
2018-11-21T06:55:25.617Z,101460.41
2018-11-21T06:56:26.077Z,101461.46
2018-11-21T06:57:26.434Z,101463.47
2018-11-21T06:57:36.370Z,101493.11
2018-11-21T06:58:37.710Z,101492.18
2018-11-21T06:59:38.543Z,101491.52
2018-11-21T07:00:38.868Z,101491.02
2018-11-21T07:01:39.388Z,101490.52
2018-11-21T07:02:39.998Z,101489.59
2018-11-21T07:03:40.482Z,101489.27
2018-11-21T07:04:40.883Z,101488.93
2018-11-21T07:05:41.342Z,101489.27
2018-11-21T07:06:41.953Z,101490.02
2018-11-21T07:07:42.570Z,101490.09
2018-11-21T07:08:43.020Z,101490.59
2018-11-21T07:09:43.375Z,101491.26
2018-11-21T07:10:43.881Z,101492.03
2018-11-21T07:11:44.473Z,101492.60
2018-11-21T07:12:44.844Z,101493.01
2018-11-21T07:13:45.263Z,101493.86
2018-11-21T07:14:45.659Z,101494.41
2018-11-21T07:15:46.054Z,101494.90
2018-11-21T07:16:46.479Z,101495.75
2018-11-21T07:17:46.973Z,101496.00
2018-11-21T07:18:47.349Z,101496.81
2018-11-21T07:19:47.789Z,101497.48
2018-11-21T07:20:48.180Z,101498.13
2018-11-21T07:21:48.810Z,101498.89
2018-11-21T07:22:49.507Z,101499.38
2018-11-21T07:23:49.914Z,101500.30
2018-11-21T07:24:50.525Z,101500.97
2018-11-21T07:25:51.088Z,101501.28
2018-11-21T07:26:51.767Z,101502.02
2018-11-21T07:27:52.219Z,101503.19
2018-11-21T07:28:52.690Z,101504.02
2018-11-21T07:29:53.164Z,101505.19
2018-11-21T07:30:53.541Z,101506.34
2018-11-21T07:31:53.975Z,101507.44
2018-11-21T07:32:54.497Z,101508.36
2018-11-21T07:33:54.914Z,101508.86
2018-11-21T07:34:55.415Z,101509.62
2018-11-21T07:35:55.803Z,101510.77
2018-11-21T07:36:56.300Z,101511.68
2018-11-21T07:37:56.796Z,101512.52
2018-11-21T07:38:57.209Z,101513.36
2018-11-21T07:39:57.707Z,101514.13
2018-11-21T07:40:57.126Z,101514.86
2018-11-21T07:41:58.695Z,101514.86
2018-11-21T07:42:07.093Z,101523.75
2018-11-21T07:43:08.413Z,101523.53
2018-11-21T07:44:08.841Z,101523.69
2018-11-21T07:45:09.269Z,101523.11
2018-11-21T07:46:09.670Z,101522.86
2018-11-21T07:47:10.029Z,101522.70
2018-11-21T07:48:10.519Z,101523.12
2018-11-21T07:49:10.926Z,101523.69
2018-11-21T07:50:11.269Z,101524.48
2018-11-21T07:51:11.489Z,101525.29
2018-11-21T07:52:11.959Z,101525.63
2018-11-21T07:53:12.454Z,101525.99
2018-11-21T07:54:12.880Z,101525.56
2018-11-21T07:55:13.339Z,101525.75
2018-11-21T07:56:13.788Z,101525.41
2018-11-21T07:57:14.146Z,101526.33
2018-11-21T07:58:14.660Z,101527.19
2018-11-21T07:59:15.244Z,101527.85
2018-11-21T08:00:15.653Z,101527.77
2018-11-21T08:01:16.138Z,101528.03
2018-11-21T08:02:16.567Z,101527.78
2018-11-21T08:03:17.117Z,101528.30
2018-11-21T08:04:17.767Z,101528.05
2018-11-21T08:05:18.228Z,101527.80
2018-11-21T08:06:18.604Z,101527.39
2018-11-21T08:07:19.151Z,101527.07
2018-11-21T08:08:19.743Z,101526.91
2018-11-21T08:09:20.300Z,101526.33
2018-11-21T08:10:20.662Z,101526.09
2018-11-21T08:11:21.079Z,101526.24
2018-11-21T08:12:21.526Z,101527.33
2018-11-21T08:13:22.029Z,101528.50
2018-11-21T08:14:22.575Z,101530.75
2018-11-21T08:15:21.989Z,101532.83
2018-11-21T08:16:23.382Z,101534.59
2018-11-21T08:17:24.008Z,101536.32
2018-11-21T08:18:24.446Z,101538.08
2018-11-21T08:19:24.826Z,101540.68
2018-11-21T08:20:25.491Z,101542.69
2018-11-21T08:21:26.202Z,101544.83
2018-11-21T08:22:26.595Z,101547.42
2018-11-21T08:23:27.004Z,101550.19
2018-11-21T08:24:27.649Z,101552.94
2018-11-21T08:25:28.176Z,101556.02
2018-11-21T08:26:28.788Z,101558.67
2018-11-21T08:27:29.315Z,101561.27
2018-11-21T08:28:29.701Z,101563.41
2018-11-21T08:28:38.044Z,101604.42
2018-11-21T08:29:39.429Z,101603.75
2018-11-21T08:30:39.774Z,101602.83
2018-11-21T08:31:39.318Z,101602.59
2018-11-21T08:32:40.600Z,101601.52
2018-11-21T08:33:41.063Z,101600.50
2018-11-21T08:34:41.587Z,101600.02
2018-11-21T08:35:41.909Z,101599.42
2018-11-21T08:36:42.417Z,101598.73
2018-11-21T08:37:42.770Z,101598.91
2018-11-21T08:38:43.150Z,101598.35
2018-11-21T08:39:43.504Z,101597.52
2018-11-21T08:40:44.084Z,101597.34
2018-11-21T08:41:44.926Z,101596.59
2018-11-21T08:42:45.303Z,101595.75
2018-11-21T08:43:45.806Z,101593.75
2018-11-21T08:44:46.303Z,101592.56
2018-11-21T08:45:46.649Z,101591.48
2018-11-21T08:46:46.974Z,101590.75
2018-11-21T08:47:47.276Z,101589.91
2018-11-21T08:48:47.668Z,101589.31
2018-11-21T08:49:48.366Z,101588.63
2018-11-21T08:50:48.812Z,101588.81
2018-11-21T08:51:49.207Z,101589.30
2018-11-21T08:52:49.538Z,101589.66
2018-11-21T08:53:49.931Z,101590.56
2018-11-21T08:54:50.342Z,101591.12
2018-11-21T08:55:50.703Z,101592.31
2018-11-21T08:56:51.463Z,101593.22
2018-11-21T08:57:51.896Z,101594.38
2018-11-21T08:58:52.244Z,101595.89
2018-11-21T08:59:52.752Z,101596.70
2018-11-21T09:00:53.183Z,101597.63
2018-11-21T09:01:53.523Z,101598.45
2018-11-21T09:02:54.276Z,101599.47
2018-11-21T09:03:54.700Z,101600.53
2018-11-21T09:04:55.072Z,101600.36
2018-11-21T09:05:55.374Z,101600.95
2018-11-21T09:06:55.712Z,101601.62
2018-11-21T09:07:56.239Z,101602.45
2018-11-21T09:08:56.643Z,101602.53
2018-11-21T09:09:57.024Z,101604.03
2018-11-21T09:10:57.556Z,101605.02
2018-11-21T09:11:58.010Z,101605.88
2018-11-21T09:12:58.434Z,101607.47
2018-11-21T09:13:59.109Z,101608.47
2018-11-21T09:14:07.555Z,101625.91
2018-11-21T09:15:09.060Z,101625.81
2018-11-21T09:16:09.468Z,101625.74
2018-11-21T09:17:09.796Z,101625.06
2018-11-21T09:18:10.261Z,101625.08
2018-11-21T09:19:10.599Z,101624.98
2018-11-21T09:20:11.084Z,101624.39
2018-11-21T09:21:11.590Z,101624.23
2018-11-21T09:22:11.987Z,101623.50
2018-11-21T09:23:12.357Z,101623.31
2018-11-21T09:24:12.797Z,101623.64
2018-11-21T09:25:13.377Z,101624.66
2018-11-21T09:26:13.996Z,101624.89
2018-11-21T09:27:14.809Z,101625.75
2018-11-21T09:28:15.541Z,101627.14
2018-11-21T09:29:16.027Z,101628.48
2018-11-21T09:30:16.356Z,101630.42
2018-11-21T09:31:16.748Z,101631.92
2018-11-21T09:32:17.143Z,101633.27
2018-11-21T09:33:17.239Z,101634.77
2018-11-21T09:34:17.848Z,101635.82
2018-11-21T09:35:18.283Z,101638.25
2018-11-21T09:36:18.890Z,101639.67
2018-11-21T09:37:19.803Z,101641.44
2018-11-21T09:38:20.604Z,101643.69
2018-11-21T09:39:21.054Z,101645.50
2018-11-21T09:40:21.498Z,101646.91
2018-11-21T09:41:21.916Z,101648.36
2018-11-21T09:42:22.335Z,101649.77
2018-11-21T09:43:22.758Z,101650.67
2018-11-21T09:44:23.202Z,101653.02
2018-11-21T09:45:23.661Z,101654.84
2018-11-21T09:46:24.001Z,101656.19
2018-11-21T09:47:24.466Z,101657.61
2018-11-21T09:48:24.985Z,101659.94
2018-11-21T09:49:25.293Z,101661.52
2018-11-21T09:50:25.680Z,101663.26
2018-11-21T09:51:26.040Z,101665.00
2018-11-21T09:52:26.359Z,101667.10
2018-11-21T09:53:26.861Z,101668.34
2018-11-21T09:54:27.240Z,101670.00
2018-11-21T09:55:27.619Z,101671.61
2018-11-21T09:56:28.285Z,101673.19
2018-11-21T09:56:36.343Z,101697.40
2018-11-21T09:57:37.681Z,101697.17
2018-11-21T09:58:38.591Z,101697.17
2018-11-21T09:59:38.030Z,101697.08
2018-11-21T10:00:39.387Z,101697.08
2018-11-21T10:01:39.778Z,101697.67
2018-11-21T10:02:40.277Z,101697.90
2018-11-21T10:03:40.693Z,101698.41
2018-11-21T10:04:41.085Z,101699.33
2018-11-21T10:05:41.759Z,101699.75
2018-11-21T10:06:42.194Z,101700.66
2018-11-21T10:07:42.933Z,101700.81
2018-11-21T10:08:43.335Z,101700.99
2018-11-21T10:09:43.835Z,101701.73
2018-11-21T10:10:44.093Z,101701.59
2018-11-21T10:11:44.629Z,101702.23
2018-11-21T10:12:45.120Z,101702.50
2018-11-21T10:13:45.703Z,101702.39
2018-11-21T10:14:46.408Z,101702.58
2018-11-21T10:15:46.936Z,101703.06
2018-11-21T10:16:47.694Z,101703.58
2018-11-21T10:17:48.057Z,101703.66
2018-11-21T10:18:48.471Z,101703.39
2018-11-21T10:19:48.865Z,101703.56
2018-11-21T10:20:49.795Z,101703.50
2018-11-21T10:21:50.350Z,101703.98
2018-11-21T10:22:51.100Z,101703.89
2018-11-21T10:23:51.345Z,101704.23
2018-11-21T10:24:50.819Z,101704.89
2018-11-21T10:25:52.290Z,101704.89
2018-11-21T10:26:52.762Z,101704.98
2018-11-21T10:27:53.312Z,101705.58
2018-11-21T10:28:53.742Z,101705.50
2018-11-21T10:29:54.196Z,101704.89
2018-11-21T10:30:54.775Z,101704.91
2018-11-21T10:31:55.336Z,101704.39
2018-11-21T10:32:55.932Z,101704.30
2018-11-21T10:33:56.753Z,101704.47
2018-11-21T10:34:57.209Z,101703.91
2018-11-21T10:35:57.575Z,101704.04
2018-11-21T10:36:58.061Z,101703.81
2018-11-21T10:37:58.619Z,101703.64
2018-11-21T10:38:59.071Z,101702.70
2018-11-21T10:39:58.481Z,101702.20
2018-11-21T10:40:59.799Z,101701.70
2018-11-21T10:42:00.512Z,101701.11
2018-11-21T10:43:00.888Z,101700.28
2018-11-21T10:43:09.225Z,101697.14
2018-11-21T10:44:10.505Z,101696.88
2018-11-21T10:45:10.978Z,101697.16
2018-11-21T10:46:11.447Z,101696.73
2018-11-21T10:47:11.868Z,101697.06
2018-11-21T10:48:12.406Z,101696.90
2018-11-21T10:49:12.792Z,101697.06
2018-11-21T10:50:13.191Z,101696.90
2018-11-21T10:51:14.994Z,101697.14
2018-11-21T10:52:13.405Z,101697.05
2018-11-21T10:53:14.934Z,101696.71
2018-11-21T10:54:15.685Z,101696.55
2018-11-21T10:55:15.238Z,101696.05
2018-11-21T10:56:16.702Z,101696.14
2018-11-21T10:57:17.402Z,101695.89
2018-11-21T10:58:17.925Z,101695.31
2018-11-21T10:59:18.637Z,101694.87
2018-11-21T11:00:19.326Z,101694.97
2018-11-21T11:01:19.788Z,101694.47
2018-11-21T11:02:20.224Z,101694.63
2018-11-21T11:03:20.681Z,101694.63
2018-11-21T11:04:21.517Z,101695.47
2018-11-21T11:05:21.599Z,101695.65
2018-11-21T11:06:22.437Z,101695.88
2018-11-21T11:07:22.463Z,101695.47
2018-11-21T11:08:23.318Z,101695.11
2018-11-21T11:09:23.799Z,101694.30
2018-11-21T11:10:24.180Z,101693.61
2018-11-21T11:11:24.569Z,101692.95
2018-11-21T11:12:25.047Z,101692.86
2018-11-21T11:13:25.839Z,101692.94
2018-11-21T11:14:26.211Z,101692.78
2018-11-21T11:15:26.215Z,101693.44
2018-11-21T11:16:26.547Z,101692.86
2018-11-21T11:17:27.180Z,101693.44
2018-11-21T11:18:27.513Z,101693.95